Amasia, Armenia

12:59 PM +04 die 27o April, anno 2017 (GMT +0400)
Gyumri Shirak Airport | | Change Station

Elev 5000 ft 40.75 °N, 43.86 °E | Updated 29 minutes ago

Serena
Serena
52 °F
Feels Like 52 °F
N
6
Ventus Variabilis Ventus from Auster

Hodie
High -- | Low -- °F
--% Chance of Precip.
Yesterday
High -- | Low -- °F
Precip. -- in
Pressio 30.33 in
Visibilitas 6.2 milia passuum
Clouds Nubes Dispersae 4900 ft
Frigus in quo Ros apparet 27 °F
Umor 38%
Rainfall 0.00 in
Snow Depth Not available.
6:08 AM 7:57 PM
New, 1% visible
METAR UDSG 270830Z 18005KT 090V220 9999 SCT049 11/M03 Q1027 R02/CLRD70 NOSIG
Pressio 30.33 in
Visibilitas 6.2 milia passuum
Clouds Nubes Dispersae 4900 ft
Frigus in quo Ros apparet 27 °F
Umor 38%
Rainfall 0.00 in
Snow Depth Not available.
6:08 AM 7:57 PM
New, 1% visible
METAR UDSG 270830Z 18005KT 090V220 9999 SCT049 11/M03 Q1027 R02/CLRD70 NOSIG

Get Severe Weather Alerts

Thanks for signing up!

Be on the lookout for a verification email in your inbox.

You'll start receiving the daily forecast at 8 AM.

×

10-Day Weather Forecast

×

Almanac

Astronomy

Apr. 27, 2017 Rise Set
Actual Time
Civil Twilight
Nautical Twilight
Astronomical Twilight
Moon
Length Of Visible Light
Length of Day
Tomorrow will be .
, % of the Moon is Illuminated

Today's Extremes

Country Highs Country Lows

Community

WunderPhotos

WunderBlog® & News

Nearby

Air Quality

  Air Quality AQ Index Pollutant
Not available.

Snow Depth

Station Depth Elevation

Earthquake Activity

City Distance Mag. Time & Date
Minimum magnitude displayed is 2.5.

Coastal Water Temperatures

Locus Calor

Stations

Nearby Weather Stations

Station Location Temp Frigus Venti Frigus in quo Ros apparet Umor Ventus Precip. Elev Renovata Type